createdAt,value
2022-10-08T00:01:04.879Z,96.06
2022-10-08T00:03:38.201Z,96.09
2022-10-08T00:06:09.446Z,95.96
2022-10-08T00:08:38.683Z,95.93
2022-10-08T00:11:12.512Z,96.36
2022-10-08T00:13:41.283Z,96.13
2022-10-08T00:16:10.013Z,95.59
2022-10-08T00:18:37.015Z,95.50
2022-10-08T00:21:10.077Z,95.26
2022-10-08T00:23:37.422Z,95.17
2022-10-08T00:26:07.180Z,94.89
2022-10-08T00:28:35.726Z,95.07
2022-10-08T00:31:17.690Z,94.61
2022-10-08T00:33:44.639Z,94.65
2022-10-08T00:36:13.217Z,94.22
2022-10-08T00:38:40.397Z,94.28
2022-10-08T00:41:16.587Z,94.65
2022-10-08T00:43:53.545Z,95.66
2022-10-08T00:46:30.101Z,95.12
2022-10-08T00:49:04.025Z,95.13
2022-10-08T00:51:33.026Z,95.00
2022-10-08T00:54:01.847Z,94.17
2022-10-08T00:56:31.559Z,93.63
2022-10-08T00:58:58.485Z,93.33
2022-10-08T01:01:25.537Z,93.45
2022-10-08T01:03:52.575Z,93.30
2022-10-08T01:06:29.068Z,92.97
2022-10-08T01:09:24.100Z,92.95
2022-10-08T01:12:13.903Z,92.43
2022-10-08T01:14:55.716Z,92.45
2022-10-08T01:17:43.993Z,92.56
2022-10-08T01:20:32.330Z,92.42
2022-10-08T01:23:15.129Z,92.14
2022-10-08T01:26:18.656Z,91.96
2022-10-08T01:29:11.202Z,92.02
2022-10-08T01:31:54.494Z,91.92
2022-10-08T01:34:31.934Z,91.96
2022-10-08T01:37:01.446Z,92.10
2022-10-08T01:39:33.212Z,91.44
2022-10-08T01:42:03.688Z,91.62
2022-10-08T01:44:35.683Z,91.25
2022-10-08T01:47:05.544Z,90.86
2022-10-08T01:49:42.369Z,91.19
2022-10-08T01:52:20.222Z,90.78
2022-10-08T01:54:49.663Z,91.05
2022-10-08T01:57:16.607Z,90.79
2022-10-08T01:59:55.159Z,90.81
2022-10-08T02:02:26.562Z,90.83
2022-10-08T02:04:55.261Z,90.76
2022-10-08T02:07:30.515Z,90.55
2022-10-08T02:10:17.308Z,90.08
2022-10-08T02:12:45.549Z,90.44
2022-10-08T02:15:18.878Z,90.44
2022-10-08T02:17:51.852Z,90.34
2022-10-08T02:20:32.600Z,90.14
2022-10-08T02:23:25.390Z,90.28
2022-10-08T02:25:58.190Z,90.25
2022-10-08T02:28:55.072Z,90.07
2022-10-08T02:31:29.044Z,89.53
2022-10-08T02:34:17.116Z,89.79
2022-10-08T02:36:57.765Z,89.53
2022-10-08T02:39:28.905Z,90.00
2022-10-08T02:42:01.931Z,89.68
2022-10-08T02:44:50.539Z,89.74
2022-10-08T02:47:22.225Z,89.37
2022-10-08T02:49:55.406Z,89.11
2022-10-08T02:52:27.415Z,89.26
2022-10-08T02:54:55.504Z,89.47
2022-10-08T02:57:34.657Z,89.34
2022-10-08T03:00:01.805Z,89.39
2022-10-08T03:03:01.377Z,89.51
2022-10-08T03:05:29.325Z,89.54
2022-10-08T03:07:58.555Z,89.04
2022-10-08T03:10:29.082Z,89.15
2022-10-08T03:13:01.765Z,89.93
2022-10-08T03:15:31.568Z,89.70
2022-10-08T03:17:59.427Z,89.80
2022-10-08T03:20:26.934Z,89.27
2022-10-08T03:23:01.901Z,89.16
2022-10-08T03:25:28.936Z,88.96
2022-10-08T03:27:55.956Z,88.76
2022-10-08T03:30:22.876Z,89.05
2022-10-08T03:32:49.898Z,88.89
2022-10-08T03:35:17.051Z,88.96
2022-10-08T03:37:44.036Z,88.59
2022-10-08T03:40:11.363Z,89.18
2022-10-08T03:42:38.371Z,88.38
2022-10-08T03:45:06.222Z,88.84
2022-10-08T03:47:33.100Z,88.30
2022-10-08T03:50:00.040Z,88.10
2022-10-08T03:52:26.942Z,88.24
2022-10-08T03:54:54.795Z,88.16
2022-10-08T03:57:21.880Z,87.84
2022-10-08T03:59:49.087Z,87.72
2022-10-08T04:02:16.210Z,87.56
2022-10-08T04:04:43.627Z,87.30
2022-10-08T04:07:10.515Z,87.52
2022-10-08T04:09:37.432Z,87.29
2022-10-08T04:12:04.385Z,86.91
2022-10-08T04:14:31.428Z,87.12
2022-10-08T04:17:00.620Z,87.75
2022-10-08T04:19:27.494Z,87.92
2022-10-08T04:21:54.454Z,87.48
2022-10-08T04:24:21.375Z,87.01
2022-10-08T04:26:48.266Z,87.51
2022-10-08T04:29:15.149Z,87.38
2022-10-08T04:31:42.001Z,86.85
2022-10-08T04:34:11.526Z,87.32
2022-10-08T04:36:39.765Z,86.67
2022-10-08T04:39:06.739Z,87.21
2022-10-08T04:41:33.665Z,86.61
2022-10-08T04:44:01.344Z,86.32
2022-10-08T04:46:29.169Z,86.45
2022-10-08T04:48:57.477Z,86.18
2022-10-08T04:51:26.307Z,85.81
2022-10-08T04:53:54.235Z,85.67
2022-10-08T04:56:27.027Z,85.95
2022-10-08T04:58:55.310Z,86.82
2022-10-08T05:01:23.452Z,86.04
2022-10-08T05:03:52.587Z,85.63
2022-10-08T05:06:22.485Z,85.93
2022-10-08T05:08:50.530Z,85.69
2022-10-08T05:11:18.289Z,85.63
2022-10-08T05:13:50.292Z,85.04
2022-10-08T05:16:18.504Z,84.78
2022-10-08T05:18:46.801Z,84.81
2022-10-08T05:21:16.284Z,84.93
2022-10-08T05:23:43.762Z,85.01
2022-10-08T05:26:35.915Z,84.90
2022-10-08T05:29:12.244Z,85.28
2022-10-08T05:31:40.182Z,84.47
2022-10-08T05:34:07.096Z,84.73
2022-10-08T05:36:34.846Z,83.90
2022-10-08T05:39:03.781Z,84.91
2022-10-08T05:41:32.906Z,84.66
2022-10-08T05:44:02.226Z,84.27
2022-10-08T05:46:31.574Z,83.82
2022-10-08T05:49:01.064Z,83.33
2022-10-08T05:51:32.304Z,83.00
2022-10-08T05:54:00.392Z,82.55
2022-10-08T05:56:28.502Z,82.00
2022-10-08T05:58:55.484Z,81.84
2022-10-08T06:01:25.691Z,80.80
2022-10-08T06:03:55.082Z,80.89
2022-10-08T06:06:25.279Z,79.78
2022-10-08T06:09:01.954Z,79.62
2022-10-08T06:11:30.262Z,79.06
2022-10-08T06:13:58.693Z,77.88
2022-10-08T06:16:26.639Z,77.70
2022-10-08T06:18:53.748Z,76.46
2022-10-08T06:21:22.896Z,76.29
2022-10-08T06:23:52.687Z,74.67
2022-10-08T06:26:22.330Z,73.10
2022-10-08T06:28:50.054Z,70.92
2022-10-08T06:31:17.394Z,63.94
2022-10-08T06:33:45.700Z,62.24
2022-10-08T06:36:17.347Z,59.89
2022-10-08T06:38:48.605Z,61.14
2022-10-08T06:41:15.618Z,58.12
2022-10-08T06:43:42.513Z,57.88
2022-10-08T06:46:09.599Z,57.35
2022-10-08T06:48:36.627Z,57.77
2022-10-08T06:51:12.463Z,56.70
2022-10-08T06:53:40.552Z,54.57
2022-10-08T06:56:14.906Z,53.60
2022-10-08T06:58:44.936Z,54.03
2022-10-08T07:01:16.407Z,52.48
2022-10-08T07:03:43.493Z,51.17
2022-10-08T07:06:12.787Z,52.81
2022-10-08T07:08:40.157Z,52.05
2022-10-08T07:11:12.625Z,49.70
2022-10-08T07:13:39.955Z,50.50
2022-10-08T07:16:18.128Z,50.63
2022-10-08T07:18:50.661Z,52.74
2022-10-08T07:21:20.087Z,51.60
2022-10-08T07:23:47.536Z,48.38
2022-10-08T07:26:15.904Z,47.05
2022-10-08T07:28:49.693Z,45.77
2022-10-08T07:31:29.801Z,44.92
2022-10-08T07:34:01.208Z,42.83
2022-10-08T07:36:29.109Z,44.37
2022-10-08T07:38:58.286Z,44.11
2022-10-08T07:41:26.160Z,44.14
2022-10-08T07:43:54.901Z,44.94
2022-10-08T07:46:22.465Z,45.08
2022-10-08T07:48:50.904Z,46.56
2022-10-08T07:51:20.841Z,46.36
2022-10-08T07:53:48.588Z,47.46
2022-10-08T07:56:17.821Z,46.88
2022-10-08T07:58:46.436Z,46.78
2022-10-08T08:01:19.715Z,46.85
2022-10-08T08:03:53.803Z,46.34
2022-10-08T08:06:21.177Z,43.64
2022-10-08T08:08:48.280Z,43.03
2022-10-08T08:11:17.760Z,41.48
2022-10-08T08:13:45.235Z,43.63
2022-10-08T08:16:20.598Z,42.19
2022-10-08T08:18:50.431Z,44.31
2022-10-08T08:21:21.054Z,45.56
2022-10-08T08:23:53.457Z,47.04
2022-10-08T08:26:28.900Z,48.01
2022-10-08T08:29:08.229Z,48.37
2022-10-08T08:31:37.553Z,49.26
2022-10-08T08:34:10.204Z,48.99
2022-10-08T08:36:40.052Z,49.90
2022-10-08T08:39:09.358Z,50.64
2022-10-08T08:41:48.294Z,52.08
2022-10-08T08:44:25.566Z,48.45
2022-10-08T08:47:13.772Z,43.62
2022-10-08T08:49:49.307Z,42.18
2022-10-08T08:52:19.590Z,38.86
2022-10-08T08:54:49.507Z,35.39
2022-10-08T08:57:34.351Z,32.23
2022-10-08T09:00:17.756Z,32.01
2022-10-08T09:02:56.043Z,29.78
2022-10-08T09:05:25.357Z,30.99
2022-10-08T09:08:29.109Z,28.36
2022-10-08T09:10:59.948Z,27.89
2022-10-08T09:13:40.404Z,24.98
2022-10-08T09:16:12.595Z,25.50
2022-10-08T09:18:42.905Z,25.23
2022-10-08T09:21:09.878Z,26.38
2022-10-08T09:23:36.788Z,26.28
2022-10-08T09:26:19.447Z,25.56
2022-10-08T09:28:51.241Z,27.03
2022-10-08T09:31:36.504Z,25.77
2022-10-08T09:34:27.382Z,23.77
2022-10-08T09:37:04.600Z,22.01
2022-10-08T09:39:34.998Z,22.06
2022-10-08T09:42:07.846Z,21.38
2022-10-08T09:44:52.174Z,20.05
2022-10-08T09:47:22.090Z,21.54
2022-10-08T09:50:04.397Z,22.73
2022-10-08T09:52:31.518Z,24.38
2022-10-08T09:55:02.610Z,23.67
2022-10-08T09:57:32.970Z,24.45
2022-10-08T10:00:06.276Z,22.57
2022-10-08T10:02:36.437Z,26.52
2022-10-08T10:05:20.075Z,27.50
2022-10-08T10:07:47.152Z,30.83
2022-10-08T10:10:25.818Z,30.65
2022-10-08T10:13:04.566Z,31.34
2022-10-08T10:15:39.636Z,32.61
2022-10-08T10:18:18.559Z,32.93
2022-10-08T10:20:51.092Z,33.30
2022-10-08T10:23:34.063Z,34.21
2022-10-08T10:26:36.381Z,36.56
2022-10-08T10:29:14.197Z,38.19
2022-10-08T10:32:06.701Z,39.42
2022-10-08T10:34:38.781Z,39.41
2022-10-08T10:37:11.768Z,39.22
2022-10-08T10:39:48.341Z,41.34
2022-10-08T10:42:26.650Z,39.22
2022-10-08T10:44:57.792Z,39.63
2022-10-08T10:47:31.995Z,39.24
2022-10-08T10:50:01.436Z,39.02
2022-10-08T10:53:09.864Z,41.64
2022-10-08T10:56:05.610Z,41.71
2022-10-08T10:58:37.650Z,41.51
2022-10-08T11:01:29.150Z,42.14
2022-10-08T11:03:56.097Z,42.52
2022-10-08T11:06:38.342Z,43.20
2022-10-08T11:09:12.549Z,42.41
2022-10-08T11:11:48.803Z,43.12
2022-10-08T11:14:34.008Z,42.82
2022-10-08T11:17:11.346Z,43.39
2022-10-08T11:19:58.447Z,43.47
2022-10-08T11:22:40.586Z,44.26
2022-10-08T11:25:23.808Z,45.12
2022-10-08T11:28:06.328Z,44.83
2022-10-08T11:30:33.250Z,46.02
2022-10-08T11:33:00.631Z,46.02
2022-10-08T11:35:40.760Z,46.19
2022-10-08T11:38:15.176Z,46.32
2022-10-08T11:40:55.092Z,47.20
2022-10-08T11:43:47.587Z,47.27
2022-10-08T11:46:41.313Z,47.98
2022-10-08T11:49:14.103Z,47.67
2022-10-08T11:51:50.068Z,47.65
2022-10-08T11:54:32.246Z,48.30
2022-10-08T11:57:20.329Z,48.38
2022-10-08T11:59:53.326Z,48.52
2022-10-08T12:02:38.031Z,48.76
2022-10-08T12:05:23.439Z,48.27
2022-10-08T12:07:58.623Z,49.00
2022-10-08T12:10:31.633Z,49.03
2022-10-08T12:13:04.138Z,49.72
2022-10-08T12:15:33.612Z,49.45
2022-10-08T12:18:01.936Z,50.11
2022-10-08T12:20:32.905Z,50.65
2022-10-08T12:23:03.207Z,50.66
2022-10-08T12:25:37.920Z,50.15
2022-10-08T12:28:20.002Z,51.25
2022-10-08T12:31:01.800Z,51.12
2022-10-08T12:33:30.698Z,51.32
2022-10-08T12:36:12.868Z,51.25
2022-10-08T12:38:58.094Z,50.83
2022-10-08T12:41:33.577Z,50.39
2022-10-08T12:44:22.117Z,51.08
2022-10-08T12:47:07.534Z,50.88
2022-10-08T12:50:00.248Z,51.00
2022-10-08T12:52:32.940Z,50.97
2022-10-08T12:55:02.012Z,51.20
2022-10-08T12:57:34.747Z,50.09
2022-10-08T13:00:21.622Z,50.54
2022-10-08T13:03:06.351Z,50.10
2022-10-08T13:05:37.630Z,50.19
2022-10-08T13:08:30.981Z,50.45
2022-10-08T13:11:00.341Z,50.56
2022-10-08T13:13:34.562Z,51.29
2022-10-08T13:16:04.232Z,50.97
2022-10-08T13:18:32.648Z,51.60
2022-10-08T13:21:04.834Z,52.02
2022-10-08T13:23:34.381Z,52.35
2022-10-08T13:26:01.452Z,52.79
2022-10-08T13:28:55.778Z,53.21
2022-10-08T13:31:22.025Z,53.93
2022-10-08T13:33:49.085Z,53.79
2022-10-08T13:36:21.720Z,54.80
2022-10-08T13:38:48.662Z,54.24
2022-10-08T13:41:25.505Z,55.36
2022-10-08T13:43:52.565Z,55.05
2022-10-08T13:46:19.527Z,55.57
2022-10-08T13:48:46.487Z,55.67
2022-10-08T13:51:13.341Z,55.87
2022-10-08T13:53:42.297Z,55.89
2022-10-08T13:56:09.301Z,55.79
2022-10-08T13:58:36.247Z,56.22
2022-10-08T14:01:03.275Z,56.36
2022-10-08T14:03:30.230Z,56.55
2022-10-08T14:05:57.953Z,56.89
2022-10-08T14:08:28.369Z,57.32
2022-10-08T14:10:59.074Z,57.08
2022-10-08T14:13:26.438Z,57.69
2022-10-08T14:15:53.462Z,57.25
2022-10-08T14:18:20.447Z,57.60
2022-10-08T14:20:51.060Z,57.63
2022-10-08T14:23:19.138Z,58.38
2022-10-08T14:25:46.474Z,57.76
2022-10-08T14:28:13.502Z,57.58
2022-10-08T14:30:40.419Z,57.82
2022-10-08T14:33:11.160Z,58.86
2022-10-08T14:35:39.069Z,59.64
2022-10-08T14:38:06.400Z,59.84
2022-10-08T14:40:33.349Z,59.29
2022-10-08T14:43:00.208Z,60.20
2022-10-08T14:45:27.231Z,59.73
2022-10-08T14:47:54.220Z,60.00
2022-10-08T14:50:21.236Z,60.18
2022-10-08T14:52:48.354Z,60.41
2022-10-08T14:55:15.811Z,60.86
2022-10-08T14:57:43.809Z,61.11
2022-10-08T15:00:11.446Z,60.91
2022-10-08T15:02:38.442Z,60.86
2022-10-08T15:05:06.560Z,61.55
2022-10-08T15:07:33.479Z,61.31
2022-10-08T15:10:00.444Z,62.01
2022-10-08T15:12:27.416Z,62.55
2022-10-08T15:14:54.283Z,62.73
2022-10-08T15:17:21.204Z,63.43
2022-10-08T15:19:48.084Z,63.06
2022-10-08T15:22:14.950Z,63.77
2022-10-08T15:24:41.802Z,64.02
2022-10-08T15:27:08.691Z,65.06
2022-10-08T15:29:36.348Z,65.11
2022-10-08T15:32:03.508Z,64.69
2022-10-08T15:34:30.554Z,65.08
2022-10-08T15:36:57.452Z,64.58
2022-10-08T15:39:24.530Z,64.99
2022-10-08T15:41:53.371Z,65.78
2022-10-08T15:44:22.812Z,65.78
2022-10-08T15:47:06.297Z,66.36
2022-10-08T15:49:41.014Z,65.99
2022-10-08T15:52:10.740Z,66.03
2022-10-08T15:54:39.183Z,66.33
2022-10-08T15:57:06.914Z,66.25
2022-10-08T15:59:34.349Z,66.54
2022-10-08T16:02:01.432Z,66.28
2022-10-08T16:04:28.658Z,66.62
2022-10-08T16:06:55.611Z,67.12
2022-10-08T16:09:23.435Z,67.92
2022-10-08T16:11:51.783Z,67.81
2022-10-08T16:14:24.371Z,67.22
2022-10-08T16:16:52.116Z,67.14
2022-10-08T16:19:23.216Z,68.30
2022-10-08T16:21:51.678Z,67.93
2022-10-08T16:24:19.549Z,67.89
2022-10-08T16:26:48.273Z,67.73
2022-10-08T16:29:17.166Z,68.09
2022-10-08T16:31:45.340Z,68.17
2022-10-08T16:34:23.653Z,68.53
2022-10-08T16:36:51.438Z,68.76
2022-10-08T16:39:21.147Z,69.16
2022-10-08T16:41:49.331Z,68.95
2022-10-08T16:44:18.752Z,69.58
2022-10-08T16:46:51.355Z,69.12
2022-10-08T16:49:24.722Z,69.49
2022-10-08T16:52:04.849Z,69.28
2022-10-08T16:54:32.908Z,69.33
2022-10-08T16:57:00.569Z,69.86
2022-10-08T16:59:29.503Z,70.24
2022-10-08T17:01:58.480Z,69.86
2022-10-08T17:04:27.879Z,69.05
2022-10-08T17:06:54.858Z,69.53
2022-10-08T17:09:22.082Z,68.74
2022-10-08T17:11:49.143Z,69.25
2022-10-08T17:14:16.327Z,69.02
2022-10-08T17:16:45.164Z,69.13
2022-10-08T17:19:12.969Z,69.27
2022-10-08T17:21:40.507Z,69.27
2022-10-08T17:24:08.073Z,69.93
2022-10-08T17:26:34.967Z,69.82
2022-10-08T17:29:07.110Z,69.51
2022-10-08T17:31:35.014Z,70.14
2022-10-08T17:34:03.306Z,69.93
2022-10-08T17:36:33.617Z,69.27
2022-10-08T17:39:03.173Z,69.22
2022-10-08T17:41:40.754Z,69.51
2022-10-08T17:44:09.706Z,69.90
2022-10-08T17:46:45.542Z,69.81
2022-10-08T17:49:17.136Z,69.33
2022-10-08T17:51:44.998Z,69.32
2022-10-08T17:54:16.778Z,69.33
2022-10-08T17:56:43.813Z,69.57
2022-10-08T17:59:17.358Z,70.17
2022-10-08T18:01:45.734Z,70.25
2022-10-08T18:04:16.156Z,69.36
2022-10-08T18:06:46.178Z,69.25
2022-10-08T18:09:19.797Z,69.04
2022-10-08T18:11:51.010Z,69.51
2022-10-08T18:14:18.321Z,69.81
2022-10-08T18:16:48.086Z,69.14
2022-10-08T18:19:16.166Z,69.62
2022-10-08T18:21:43.367Z,69.47
2022-10-08T18:24:11.019Z,69.55
2022-10-08T18:26:37.935Z,69.45
2022-10-08T18:29:11.717Z,69.42
2022-10-08T18:31:41.220Z,70.20
2022-10-08T18:34:13.490Z,69.47
2022-10-08T18:36:40.479Z,69.97
2022-10-08T18:39:12.567Z,69.88
2022-10-08T18:41:47.164Z,69.78
2022-10-08T18:44:17.600Z,69.73
2022-10-08T18:46:45.240Z,69.44
2022-10-08T18:49:17.879Z,69.53
2022-10-08T18:51:45.169Z,69.71
2022-10-08T18:54:12.568Z,69.68
2022-10-08T18:56:41.253Z,69.44
2022-10-08T18:59:13.660Z,70.77
2022-10-08T19:01:43.190Z,70.09
2022-10-08T19:04:19.154Z,70.65
2022-10-08T19:06:47.280Z,70.26
2022-10-08T19:09:15.126Z,71.28
2022-10-08T19:11:45.483Z,71.28
2022-10-08T19:14:14.527Z,71.57
2022-10-08T19:16:42.260Z,70.89
2022-10-08T19:19:14.036Z,71.38
2022-10-08T19:21:41.558Z,72.45
2022-10-08T19:24:12.920Z,72.99
2022-10-08T19:26:40.143Z,72.69
2022-10-08T19:29:07.051Z,72.50
2022-10-08T19:31:35.777Z,73.05
2022-10-08T19:34:05.529Z,73.16
2022-10-08T19:36:36.116Z,72.98
2022-10-08T19:39:06.628Z,73.45
2022-10-08T19:41:33.575Z,73.55
2022-10-08T19:44:00.737Z,73.72
2022-10-08T19:46:28.615Z,74.19
2022-10-08T19:48:58.001Z,74.08
2022-10-08T19:51:26.048Z,73.69
2022-10-08T19:53:53.566Z,74.19
2022-10-08T19:56:22.369Z,74.06
2022-10-08T19:58:50.913Z,75.11
2022-10-08T20:01:25.971Z,74.98
2022-10-08T20:03:55.879Z,75.28
2022-10-08T20:06:26.856Z,75.76
2022-10-08T20:09:01.615Z,75.66
2022-10-08T20:11:30.837Z,75.33
2022-10-08T20:13:59.615Z,75.94
2022-10-08T20:16:36.033Z,76.67
2022-10-08T20:19:06.341Z,76.42
2022-10-08T20:21:36.338Z,77.56
2022-10-08T20:24:04.075Z,76.65
2022-10-08T20:26:37.457Z,77.77
2022-10-08T20:29:07.352Z,76.77
2022-10-08T20:31:42.146Z,77.34
2022-10-08T20:34:17.864Z,77.86
2022-10-08T20:36:48.237Z,76.82
2022-10-08T20:39:16.921Z,76.86
2022-10-08T20:41:44.427Z,77.61
2022-10-08T20:44:11.436Z,77.86
2022-10-08T20:46:38.897Z,77.65
2022-10-08T20:49:06.604Z,77.60
2022-10-08T20:51:34.472Z,77.72
2022-10-08T20:54:04.708Z,77.63
2022-10-08T20:56:38.463Z,77.47
2022-10-08T20:59:07.993Z,77.20
2022-10-08T21:01:38.305Z,77.24
2022-10-08T21:04:07.236Z,76.85
2022-10-08T21:06:43.654Z,77.26
2022-10-08T21:09:10.976Z,76.97
2022-10-08T21:11:38.527Z,77.64
2022-10-08T21:14:07.092Z,76.62
2022-10-08T21:16:36.993Z,77.06
2022-10-08T21:19:06.950Z,77.66
2022-10-08T21:21:34.517Z,76.92
2022-10-08T21:24:01.794Z,77.40
2022-10-08T21:26:33.895Z,77.07
2022-10-08T21:29:03.186Z,77.50
2022-10-08T21:31:32.145Z,77.49
2022-10-08T21:33:59.215Z,77.59
2022-10-08T21:36:28.935Z,77.09
2022-10-08T21:38:56.446Z,77.35
2022-10-08T21:41:24.753Z,77.37
2022-10-08T21:43:53.973Z,77.42
2022-10-08T21:46:24.872Z,77.09
2022-10-08T21:48:56.660Z,77.50
2022-10-08T21:51:24.152Z,77.36
2022-10-08T21:54:01.976Z,77.89
2022-10-08T21:56:33.618Z,77.86
2022-10-08T21:59:02.060Z,77.67
2022-10-08T22:01:31.510Z,77.73
2022-10-08T22:04:00.514Z,77.87
2022-10-08T22:06:29.642Z,77.96
2022-10-08T22:08:57.252Z,78.13
2022-10-08T22:11:24.815Z,78.30
2022-10-08T22:13:52.033Z,78.76
2022-10-08T22:16:21.179Z,78.44
2022-10-08T22:18:48.127Z,79.02
2022-10-08T22:21:20.241Z,78.74
2022-10-08T22:23:48.033Z,79.05
2022-10-08T22:26:20.851Z,79.17
2022-10-08T22:28:48.191Z,78.99
2022-10-08T22:31:15.997Z,79.35
2022-10-08T22:33:43.067Z,79.94
2022-10-08T22:36:14.098Z,80.24
2022-10-08T22:38:42.681Z,79.65
2022-10-08T22:41:18.469Z,79.95
2022-10-08T22:43:46.114Z,79.79
2022-10-08T22:46:16.841Z,80.52
2022-10-08T22:48:43.823Z,80.26
2022-10-08T22:51:24.845Z,80.66
2022-10-08T22:53:51.998Z,79.97
2022-10-08T22:56:21.934Z,80.59
2022-10-08T22:58:50.248Z,80.46
2022-10-08T23:01:20.189Z,80.94
2022-10-08T23:03:48.219Z,81.00
2022-10-08T23:06:21.492Z,81.06
2022-10-08T23:08:52.730Z,81.30
2022-10-08T23:11:19.557Z,80.80
2022-10-08T23:13:50.411Z,82.59
2022-10-08T23:16:17.861Z,81.46
2022-10-08T23:18:47.178Z,81.60
2022-10-08T23:21:17.241Z,81.77
2022-10-08T23:23:45.875Z,82.00
2022-10-08T23:26:13.552Z,82.19
2022-10-08T23:28:41.145Z,83.16
2022-10-08T23:31:11.274Z,83.00
2022-10-08T23:33:39.839Z,82.31
2022-10-08T23:36:07.929Z,83.31
2022-10-08T23:38:36.018Z,82.85
2022-10-08T23:41:05.563Z,83.54
2022-10-08T23:43:41.309Z,83.72
2022-10-08T23:46:10.353Z,83.40
2022-10-08T23:48:37.439Z,83.60
2022-10-08T23:51:05.691Z,83.95
2022-10-08T23:53:33.131Z,83.58
2022-10-08T23:56:00.357Z,83.53
2022-10-08T23:58:27.705Z,83.74
